This is the latest recevied weather packets stored in our database for station/object OH2HCY. If no packets are shown the sender has not sent any weather packets the latest 10 day(s).
| Time | Temp. | Humidity | Pressure | Rain* | Wind** | Luminosity | Snow |
|---|---|---|---|---|---|---|---|
| 1788536085 | 15.56° C | 68% | 992.7 hPa | - | - | - | - |
| 1788535508 | 15.56° C | 65% | 992.6 hPa | - | - | - | - |
| 1788534965 | 16.11° C | 64% | 992.5 hPa | - | - | - | - |
| 1788534435 | 15.56° C | 67% | 992.6 hPa | - | - | - | - |
| 1788533880 | 15.56° C | 69% | 992.7 hPa | - | - | - | - |
| 1788533340 | 15.56° C | 68% | 992.6 hPa | - | - | - | - |
| 1788532785 | 16.11° C | 66% | 992.2 hPa | - | - | - | - |
| 1788532240 | 16.11° C | 66% | 992.3 hPa | - | - | - | - |
| 1788531712 | 15.56° C | 66% | 992.6 hPa | - | - | - | - |
| 1788531185 | 15.56° C | 65% | 992.8 hPa | - | - | - | - |
| 1788530608 | 16.11° C | 60% | 992.4 hPa | - | - | - | - |
| 1788530050 | 16.67° C | 56% | 992.1 hPa | - | - | - | - |
| 1788529480 | 17.22° C | 52% | 991.9 hPa | - | - | - | - |
| 1788528952 | 17.22° C | 55% | 992 hPa | - | - | - | - |
| 1788528385 | 17.22° C | 54% | 992.1 hPa | - | - | - | - |
| 1788527850 | 16.67° C | 55% | 992.1 hPa | - | - | - | - |
| 1788527332 | 17.22° C | 54% | 992.1 hPa | - | - | - | - |
| 1788526800 | 16.67° C | 58% | 992.3 hPa | - | - | - | - |
| 1788526279 | 16.11° C | 61% | 992.6 hPa | - | - | - | - |
| 1788525715 | 16.11° C | 60% | 992.8 hPa | - | - | - | - |
| 1788525228 | 16.11° C | 59% | 992.8 hPa | - | - | - | - |
| 1788524670 | 17.22° C | 55% | 992.3 hPa | - | - | - | - |
| 1788524120 | 17.22° C | 50% | 992 hPa | - | - | - | - |
| 1788523625 | 17.78° C | 48% | 991.7 hPa | - | - | - | - |
| 1788523085 | 18.33° C | 47% | 991.5 hPa | - | - | - | - |
* Rain since midnight (hover to see other rain measurements)
** Current wind speed in m/s (hover to see current wind gust speed)